Time;durP1;ratioP1;P1;durP2;ratioP2;P2;SDS_P1;SDS_P2;PMS_P1;PMS_P2;Temp;Humidity;BMP_temperature;BMP_pressure;BME280_temperature;BME280_humidity;BME280_pressure;Samples;Min_cycle;Max_cycle;Signal;HPM_P1;HPM_P2
2022/07/10 00:00:40;;;;;;;5.85;1.45;;;14.80;99.90;;;;;;4937300;29;20052;-72
2022/07/10 00:03:06;;;;;;;2.80;1.50;;;14.70;99.90;;;;;;4937288;29;20432;-73
2022/07/10 00:05:34;;;;;;;6.30;2.17;;;14.60;99.90;;;;;;4937470;29;20507;-74
2022/07/10 00:08:00;;;;;;;4.05;1.63;;;14.60;99.90;;;;;;4936183;29;20060;-74
2022/07/10 00:10:28;;;;;;;4.75;1.90;;;14.50;99.90;;;;;;4937134;29;20095;-74
2022/07/10 00:12:54;;;;;;;5.47;1.45;;;14.50;99.90;;;;;;4937713;29;20074;-72
2022/07/10 00:15:20;;;;;;;3.13;1.13;;;14.50;99.90;;;;;;4937315;29;20544;-74
2022/07/10 00:17:46;;;;;;;2.63;1.27;;;14.50;99.90;;;;;;4937613;29;20094;-74
2022/07/10 00:20:13;;;;;;;2.60;1.05;;;14.40;99.90;;;;;;4936828;29;20504;-74
2022/07/10 00:22:39;;;;;;;2.65;1.50;;;14.40;99.90;;;;;;4937045;29;20054;-74
2022/07/10 00:25:07;;;;;;;4.40;1.35;;;14.30;99.90;;;;;;4936928;29;20048;-74
2022/07/10 00:27:32;;;;;;;3.67;1.98;;;14.30;99.90;;;;;;4937349;29;20063;-74
2022/07/10 00:29:58;;;;;;;4.38;1.15;;;14.20;99.90;;;;;;4936905;29;20440;-74
2022/07/10 00:32:24;;;;;;;5.93;1.80;;;14.20;99.90;;;;;;4936820;29;20083;-71
2022/07/10 00:34:51;;;;;;;3.03;1.35;;;14.20;99.90;;;;;;4936522;29;20124;-74
2022/07/10 00:37:17;;;;;;;6.28;1.50;;;14.10;99.90;;;;;;4935532;29;20059;-71
2022/07/10 00:39:42;;;;;;;3.13;1.33;;;14.00;99.90;;;;;;4936585;29;20127;-74
2022/07/10 00:42:13;;;;;;;2.67;1.40;;;14.00;99.90;;;;;;4936927;29;20079;-71
2022/07/10 00:44:40;;;;;;;3.90;1.48;;;14.00;99.90;;;;;;4936769;29;20040;-73
2022/07/10 00:47:07;;;;;;;2.75;1.50;;;13.90;99.90;;;;;;4936619;29;20047;-74
2022/07/10 00:49:34;;;;;;;3.35;1.65;;;13.90;99.90;;;;;;4936595;29;20056;-73
2022/07/10 00:52:01;;;;;;;2.30;1.25;;;13.80;99.90;;;;;;4936517;29;20515;-73
2022/07/10 00:54:28;;;;;;;3.17;1.10;;;13.80;99.90;;;;;;4936776;29;20090;-71
2022/07/10 00:56:54;;;;;;;2.58;0.88;;;13.90;99.90;;;;;;4935948;29;20432;-72
2022/07/10 00:59:21;;;;;;;5.13;1.65;;;13.90;99.90;;;;;;4936385;29;20048;-74
2022/07/10 01:01:48;;;;;;;4.82;2.08;;;13.90;99.90;;;;;;4936327;29;20058;-70
2022/07/10 01:04:13;;;;;;;3.63;1.40;;;13.90;99.90;;;;;;4935150;29;20071;-73
2022/07/10 01:06:39;;;;;;;4.32;1.30;;;14.00;99.90;;;;;;4936470;29;20468;-70
2022/07/10 01:09:05;;;;;;;4.38;1.50;;;14.00;99.90;;;;;;4936590;29;20464;-74
2022/07/10 01:11:34;;;;;;;6.30;1.77;;;14.00;99.90;;;;;;4936071;29;20044;-74
2022/07/10 01:14:00;;;;;;;2.60;1.30;;;14.00;99.90;;;;;;4936187;29;20472;-74
2022/07/10 01:16:26;;;;;;;2.95;1.10;;;13.90;99.90;;;;;;4935633;29;20457;-73
2022/07/10 01:18:52;;;;;;;2.78;1.60;;;13.90;99.90;;;;;;4936485;29;20044;-73
2022/07/10 01:21:44;;;;;;;1.83;1.17;;;13.80;99.90;;;;;;4936351;29;20051;-73
2022/07/10 01:24:10;;;;;;;3.05;1.42;;;13.80;99.90;;;;;;4936013;29;20051;-74
2022/07/10 01:26:37;;;;;;;6.00;1.95;;;13.70;99.90;;;;;;4935961;29;20115;-71
2022/07/10 01:29:04;;;;;;;5.22;2.20;;;13.80;99.90;;;;;;4935781;29;20058;-71
2022/07/10 01:31:30;;;;;;;7.00;2.45;;;13.70;99.90;;;;;;4935289;29;20052;-74
2022/07/10 01:33:57;;;;;;;3.40;1.70;;;13.70;99.90;;;;;;4935898;29;20050;-73
2022/07/10 01:36:23;;;;;;;6.30;1.75;;;13.70;99.90;;;;;;4935874;29;20188;-73
2022/07/10 01:38:51;;;;;;;5.65;1.90;;;13.80;99.90;;;;;;4935962;29;20130;-71
2022/07/10 01:41:17;;;;;;;3.47;1.48;;;13.80;99.90;;;;;;4935574;29;20130;-74
2022/07/10 01:43:44;;;;;;;3.50;1.30;;;13.80;99.90;;;;;;4934715;29;20170;-74
2022/07/10 01:46:11;;;;;;;2.88;1.30;;;13.80;99.90;;;;;;4935580;29;20164;-73
2022/07/10 01:48:38;;;;;;;3.65;1.65;;;13.80;99.90;;;;;;4935571;29;20090;-72
2022/07/10 01:51:08;;;;;;;5.40;1.23;;;13.70;99.90;;;;;;4935979;29;20115;-75
2022/07/10 01:53:34;;;;;;;4.63;1.27;;;13.70;99.90;;;;;;4935455;29;20130;-75
2022/07/10 01:56:04;;;;;;;3.40;1.50;;;13.80;99.90;;;;;;4935915;29;20047;-74
2022/07/10 01:58:30;;;;;;;4.75;1.80;;;13.80;99.90;;;;;;4935643;29;20060;-74
2022/07/10 02:00:55;;;;;;;5.95;1.95;;;13.80;99.90;;;;;;4935062;29;20536;-74
2022/07/10 02:06:05;;;;;;;3.88;1.30;;;13.90;99.90;;;;;;4935263;29;20142;-71
2022/07/10 02:08:31;;;;;;;4.88;1.67;;;13.90;99.90;;;;;;4935288;29;20079;-74
2022/07/10 02:10:57;;;;;;;3.58;1.27;;;13.80;99.90;;;;;;4935993;29;20044;-71
2022/07/10 02:13:25;;;;;;;4.95;1.38;;;13.80;99.90;;;;;;4935662;29;20488;-75
2022/07/10 02:15:51;;;;;;;2.78;1.52;;;13.80;99.90;;;;;;4935214;29;20051;-75
2022/07/10 02:18:16;;;;;;;2.85;1.45;;;13.80;99.90;;;;;;4935078;29;20047;-74
2022/07/10 02:20:42;;;;;;;10.35;3.55;;;13.80;99.90;;;;;;4935170;29;20106;-73
2022/07/10 02:23:08;;;;;;;2.25;0.98;;;13.80;99.90;;;;;;4935183;29;20047;-74
2022/07/10 02:25:33;;;;;;;4.93;1.48;;;13.80;99.90;;;;;;4935475;29;20052;-74
2022/07/10 02:27:59;;;;;;;5.15;1.55;;;13.70;99.90;;;;;;4935186;29;20607;-75
2022/07/10 02:30:25;;;;;;;2.63;1.20;;;13.70;99.90;;;;;;4934054;29;20047;-74
2022/07/10 02:32:51;;;;;;;5.22;1.52;;;13.60;99.90;;;;;;4935035;29;20047;-74
2022/07/10 02:35:17;;;;;;;3.90;1.52;;;13.60;99.90;;;;;;4934509;29;20419;-74
2022/07/10 02:37:42;;;;;;;7.50;1.67;;;13.60;99.90;;;;;;4934966;29;20055;-74
2022/07/10 02:40:08;;;;;;;3.42;1.55;;;13.60;99.90;;;;;;4934446;29;20059;-72
2022/07/10 02:42:34;;;;;;;3.88;1.65;;;13.60;99.90;;;;;;4933903;29;20052;-74
2022/07/10 02:45:00;;;;;;;7.63;2.22;;;13.60;99.90;;;;;;4935210;29;20063;-71
2022/07/10 02:47:25;;;;;;;5.55;1.70;;;13.60;99.90;;;;;;4935406;29;20051;-75
2022/07/10 02:49:51;;;;;;;3.22;1.42;;;13.60;99.90;;;;;;4935016;29;20505;-75
2022/07/10 02:52:17;;;;;;;3.85;1.80;;;13.60;99.90;;;;;;4934913;29;20487;-74
2022/07/10 02:54:42;;;;;;;3.25;1.45;;;13.50;99.90;;;;;;4934684;29;20055;-72
2022/07/10 02:57:08;;;;;;;3.17;1.33;;;13.50;99.90;;;;;;4935030;29;20050;-71
2022/07/10 02:59:34;;;;;;;3.55;1.48;;;13.50;99.90;;;;;;4935669;29;20048;-75
2022/07/10 03:02:00;;;;;;;4.43;1.42;;;13.50;99.90;;;;;;4938746;29;20048;-74
2022/07/10 03:04:26;;;;;;;4.97;2.08;;;13.50;99.90;;;;;;4938304;29;20552;-74
2022/07/10 03:06:52;;;;;;;5.90;1.40;;;13.50;99.90;;;;;;4938513;29;20044;-75
2022/07/10 03:09:18;;;;;;;4.68;1.33;;;13.50;99.90;;;;;;4938350;29;20055;-74
2022/07/10 03:11:43;;;;;;;4.85;1.40;;;13.50;99.90;;;;;;4938161;29;20135;-73
2022/07/10 03:14:09;;;;;;;3.65;1.35;;;13.40;99.90;;;;;;4938617;29;20074;-72
2022/07/10 03:16:35;;;;;;;8.80;1.90;;;13.50;99.90;;;;;;4938424;29;20186;-72
2022/07/10 03:19:00;;;;;;;3.85;2.60;;;13.50;99.90;;;;;;4938073;29;20131;-75
2022/07/10 03:21:26;;;;;;;6.72;2.10;;;13.50;99.90;;;;;;4938229;29;20052;-74
2022/07/10 03:23:52;;;;;;;4.05;1.90;;;13.50;99.90;;;;;;4937000;29;20130;-75
2022/07/10 03:26:17;;;;;;;1.20;1.10;;;13.60;99.90;;;;;;4938001;29;20044;-75
2022/07/10 03:28:43;;;;;;;5.13;1.20;;;13.60;99.90;;;;;;4937887;29;20071;-74
2022/07/10 03:31:09;;;;;;;5.28;1.45;;;13.60;99.90;;;;;;4937460;29;20051;-72
2022/07/10 03:33:34;;;;;;;6.07;1.30;;;13.60;99.90;;;;;;4938204;29;20055;-72
2022/07/10 03:36:01;;;;;;;3.45;1.48;;;13.60;99.90;;;;;;4938090;29;20139;-74
2022/07/10 03:38:27;;;;;;;5.57;1.80;;;13.60;99.90;;;;;;4937927;29;20055;-74
2022/07/10 03:40:53;;;;;;;4.45;1.85;;;13.70;99.90;;;;;;4938321;29;20063;-74
2022/07/10 03:43:19;;;;;;;2.70;1.45;;;13.70;99.90;;;;;;4937959;29;20491;-74
2022/07/10 03:45:45;;;;;;;2.70;1.52;;;13.80;99.90;;;;;;4938025;29;20051;-72
2022/07/10 03:48:11;;;;;;;2.88;1.33;;;13.80;99.90;;;;;;4937705;29;20063;-74
2022/07/10 03:50:37;;;;;;;4.82;1.35;;;13.80;99.90;;;;;;4937605;29;20062;-74
2022/07/10 03:53:03;;;;;;;2.22;1.17;;;13.90;99.90;;;;;;4937967;29;20055;-73
2022/07/10 03:55:28;;;;;;;1.92;1.27;;;13.90;99.90;;;;;;4937174;29;20060;-70
2022/07/10 03:57:54;;;;;;;5.82;2.20;;;13.90;99.90;;;;;;4936355;29;20047;-73
2022/07/10 04:00:32;;;;;;;2.40;2.00;;;14.00;99.90;;;;;;4937810;29;20444;-74
2022/07/10 04:03:00;;;;;;;3.08;1.25;;;14.00;99.90;;;;;;4937363;29;20055;-74
2022/07/10 04:05:27;;;;;;;9.25;1.67;;;14.10;99.90;;;;;;4937226;29;20495;-73
2022/07/10 04:07:53;;;;;;;3.05;1.27;;;14.10;99.90;;;;;;4937200;29;20477;-75
2022/07/10 04:10:19;;;;;;;6.65;1.27;;;14.20;99.90;;;;;;4936623;29;20433;-73
2022/07/10 04:12:45;;;;;;;4.57;1.15;;;14.20;99.90;;;;;;4936851;29;20056;-73
2022/07/10 04:15:11;;;;;;;3.35;1.98;;;14.20;99.90;;;;;;4937250;29;20054;-74
2022/07/10 04:17:37;;;;;;;5.38;2.17;;;14.30;99.90;;;;;;4937258;29;20048;-73
2022/07/10 04:20:03;;;;;;;3.95;1.50;;;14.30;99.90;;;;;;4935980;29;20051;-73
2022/07/10 04:22:29;;;;;;;4.93;1.10;;;14.30;99.90;;;;;;4937207;29;20083;-74
2022/07/10 04:24:55;;;;;;;4.25;1.52;;;14.30;99.90;;;;;;4937084;29;20089;-74
2022/07/10 04:27:20;;;;;;;4.95;1.30;;;14.30;99.90;;;;;;4936893;29;20047;-73
2022/07/10 04:29:47;;;;;;;4.03;1.38;;;14.30;99.90;;;;;;4936807;29;20086;-73
2022/07/10 04:32:13;;;;;;;3.30;1.50;;;14.40;99.90;;;;;;4935953;29;20539;-74
2022/07/10 04:34:39;;;;;;;1.90;1.48;;;14.40;99.90;;;;;;4936602;29;20114;-74
2022/07/10 04:37:07;;;;;;;3.10;1.40;;;14.40;99.90;;;;;;4936803;29;20051;-74
2022/07/10 04:39:34;;;;;;;7.78;1.73;;;14.40;99.90;;;;;;4936648;29;20051;-75
2022/07/10 04:42:01;;;;;;;2.78;1.38;;;14.50;99.90;;;;;;4936250;29;20051;-73
2022/07/10 04:44:27;;;;;;;5.07;1.40;;;14.50;99.90;;;;;;4935570;29;20565;-72
2022/07/10 04:46:53;;;;;;;5.40;1.63;;;14.60;99.90;;;;;;4936390;29;20047;-72
2022/07/10 04:49:19;;;;;;;3.70;1.27;;;14.50;99.90;;;;;;4936417;29;20054;-71
2022/07/10 04:51:45;;;;;;;2.65;1.73;;;14.60;99.90;;;;;;4936322;29;20044;-75
2022/07/10 04:54:10;;;;;;;4.82;1.40;;;14.70;99.90;;;;;;4936591;29;20051;-74
2022/07/10 04:56:36;;;;;;;10.88;2.80;;;14.70;99.90;;;;;;4936414;29;20476;-74
2022/07/10 04:59:02;;;;;;;4.15;1.80;;;14.70;99.90;;;;;;4936610;29;20468;-73
2022/07/10 05:01:27;;;;;;;5.00;1.70;;;14.80;99.90;;;;;;4936626;29;20063;-73
2022/07/10 05:03:53;;;;;;;4.25;1.70;;;14.80;99.90;;;;;;4936119;29;20412;-75
2022/07/10 05:06:19;;;;;;;5.03;1.65;;;14.90;99.90;;;;;;4936131;29;20058;-74
2022/07/10 05:08:45;;;;;;;2.92;2.08;;;15.00;99.90;;;;;;4936275;29;20048;-74
2022/07/10 05:11:10;;;;;;;6.60;2.20;;;15.10;99.90;;;;;;4936048;29;20487;-75
2022/07/10 05:13:36;;;;;;;10.02;2.38;;;15.10;99.90;;;;;;4936161;29;20127;-74
2022/07/10 05:16:03;;;;;;;4.35;1.92;;;15.20;99.90;;;;;;4936101;29;20044;-73
2022/07/10 05:18:29;;;;;;;3.70;2.30;;;15.30;99.90;;;;;;4936031;29;20051;-74
2022/07/10 05:20:54;;;;;;;10.70;2.28;;;15.30;99.90;;;;;;4934021;29;20133;-75
2022/07/10 05:23:20;;;;;;;4.30;1.90;;;15.40;99.90;;;;;;4934471;29;20055;-75
2022/07/10 05:25:46;;;;;;;4.32;1.80;;;15.40;99.90;;;;;;4935237;29;20047;-72
2022/07/10 05:28:15;;;;;;;4.00;1.65;;;15.50;99.90;;;;;;4935242;29;20095;-73
2022/07/10 05:30:43;;;;;;;4.13;1.70;;;15.60;99.90;;;;;;4935381;29;20532;-74
2022/07/10 05:33:09;;;;;;;5.68;2.40;;;15.60;99.90;;;;;;4935719;29;20059;-71
2022/07/10 05:35:35;;;;;;;2.90;1.73;;;15.70;99.90;;;;;;4934301;29;20525;-74
2022/07/10 05:38:01;;;;;;;3.35;1.50;;;15.70;99.90;;;;;;4935067;29;20052;-74
2022/07/10 05:40:27;;;;;;;4.18;1.90;;;15.80;99.90;;;;;;4935270;29;20127;-73
2022/07/10 05:42:53;;;;;;;7.68;2.08;;;15.80;99.90;;;;;;4935356;29;20111;-70
2022/07/10 05:45:18;;;;;;;4.00;2.95;;;15.90;99.90;;;;;;4934470;29;20051;-74
2022/07/10 05:47:44;;;;;;;2.05;1.60;;;15.90;99.90;;;;;;4935267;29;20119;-71
2022/07/10 05:50:11;;;;;;;7.55;2.10;;;16.00;99.90;;;;;;4935132;29;20079;-71
2022/07/10 05:52:37;;;;;;;6.38;1.70;;;16.00;99.90;;;;;;4933899;29;20058;-73
2022/07/10 05:55:04;;;;;;;8.40;2.03;;;16.20;99.90;;;;;;4934984;29;20123;-74
2022/07/10 05:57:31;;;;;;;4.15;1.70;;;16.20;99.90;;;;;;4935325;29;20046;-75
2022/07/10 05:59:57;;;;;;;4.38;1.10;;;16.30;99.90;;;;;;4934685;29;20047;-72
2022/07/10 06:02:22;;;;;;;6.55;2.25;;;16.30;99.90;;;;;;4933633;29;20048;-72
2022/07/10 06:04:49;;;;;;;5.63;2.00;;;16.20;99.90;;;;;;4934879;29;20044;-72
2022/07/10 06:07:15;;;;;;;3.42;1.45;;;16.20;99.90;;;;;;4933477;29;20417;-75
2022/07/10 06:09:41;;;;;;;6.20;2.10;;;16.20;99.90;;;;;;4934622;29;20058;-75
2022/07/10 06:12:06;;;;;;;3.30;1.77;;;16.20;99.90;;;;;;4934848;29;20048;-75
2022/07/10 06:14:32;;;;;;;7.13;1.90;;;16.20;99.90;;;;;;4934296;29;20059;-72
2022/07/10 06:16:58;;;;;;;11.07;3.30;;;16.10;99.90;;;;;;4934437;29;20426;-72
2022/07/10 06:19:24;;;;;;;7.22;1.88;;;16.10;99.90;;;;;;4934668;29;20039;-72
2022/07/10 06:22:30;;;;;;;6.20;1.60;;;16.10;99.90;;;;;;4933535;29;20469;-72
2022/07/10 06:24:35;;;;;;;4.30;1.90;;;16.00;99.90;;;;;;4934448;29;20051;-73
2022/07/10 06:27:01;;;;;;;6.72;1.92;;;16.10;99.90;;;;;;4934744;29;20468;-75
2022/07/10 06:29:26;;;;;;;4.20;2.13;;;16.00;99.90;;;;;;4934628;29;20480;-75
2022/07/10 06:31:52;;;;;;;2.08;1.45;;;16.00;99.90;;;;;;4934529;29;20055;-73
2022/07/10 06:34:19;;;;;;;1.85;1.60;;;16.00;99.90;;;;;;4936598;29;20044;-73
2022/07/10 06:36:45;;;;;;;6.95;2.00;;;15.80;99.90;;;;;;4937320;29;20057;-74
2022/07/10 06:39:10;;;;;;;3.05;2.22;;;15.80;99.90;;;;;;4938810;29;20044;-75
2022/07/10 06:41:36;;;;;;;4.78;1.70;;;15.80;99.90;;;;;;4938156;29;20056;-72
2022/07/10 06:44:03;;;;;;;2.47;1.52;;;15.80;99.90;;;;;;4938400;29;20053;-73
2022/07/10 06:46:29;;;;;;;9.65;2.10;;;15.80;99.90;;;;;;4938154;29;20547;-71
2022/07/10 06:48:54;;;;;;;4.28;1.20;;;15.90;99.90;;;;;;4938112;29;20051;-73
2022/07/10 06:51:20;;;;;;;4.63;1.75;;;15.90;99.90;;;;;;4939011;29;20047;-72
2022/07/10 06:53:46;;;;;;;4.07;1.70;;;15.90;99.90;;;;;;4938497;29;20480;-72
2022/07/10 06:56:14;;;;;;;3.47;1.80;;;15.90;99.90;;;;;;4938198;29;20047;-72
2022/07/10 06:58:40;;;;;;;6.53;1.80;;;15.90;99.90;;;;;;4938268;29;20056;-74
2022/07/10 07:01:06;;;;;;;4.50;1.92;;;15.80;99.90;;;;;;4938050;29;20056;-73
2022/07/10 07:03:31;;;;;;;3.85;1.67;;;15.80;99.90;;;;;;4938317;29;20061;-72
2022/07/10 07:05:57;;;;;;;3.42;1.60;;;15.70;99.90;;;;;;4937932;29;20050;-71
2022/07/10 07:08:23;;;;;;;4.97;1.40;;;15.70;99.90;;;;;;4938304;29;20044;-70
2022/07/10 07:10:48;;;;;;;5.47;1.77;;;15.60;99.90;;;;;;4937874;29;20102;-70
2022/07/10 07:13:14;;;;;;;4.78;1.50;;;15.60;99.90;;;;;;4937823;29;20098;-71
2022/07/10 07:15:42;;;;;;;3.75;1.63;;;15.60;99.90;;;;;;4938246;29;20047;-72
2022/07/10 07:18:08;;;;;;;3.47;1.50;;;15.60;99.90;;;;;;4937755;29;20047;-72
2022/07/10 07:23:23;;;;;;;6.10;1.75;;;15.80;99.90;;;;;;4937754;29;20058;-73
2022/07/10 07:25:49;;;;;;;4.32;1.65;;;15.90;99.90;;;;;;4937723;29;20059;-70
2022/07/10 07:28:15;;;;;;;2.08;1.25;;;15.90;99.90;;;;;;4937358;29;20055;-71
2022/07/10 07:30:44;;;;;;;3.55;1.60;;;15.90;99.90;;;;;;4937579;29;20051;-73
2022/07/10 07:33:11;;;;;;;4.30;1.35;;;16.10;99.90;;;;;;4937583;29;20119;-73
2022/07/10 07:35:36;;;;;;;6.07;1.35;;;16.10;99.90;;;;;;4937604;29;20075;-72
2022/07/10 07:38:03;;;;;;;5.28;1.52;;;16.20;99.90;;;;;;4936685;29;20052;-72
2022/07/10 07:40:29;;;;;;;4.20;1.48;;;16.30;99.90;;;;;;4937499;29;20051;-72
2022/07/10 07:42:55;;;;;;;6.60;1.63;;;16.30;99.90;;;;;;4937645;29;20048;-72
2022/07/10 07:45:25;;;;;;;5.07;2.03;;;16.30;99.90;;;;;;4935644;29;20568;-71
2022/07/10 07:47:53;;;;;;;4.78;1.40;;;16.30;99.90;;;;;;4937041;29;20048;-71
2022/07/10 07:50:25;;;;;;;7.82;1.50;;;16.40;99.90;;;;;;4937394;29;20047;-70
2022/07/10 07:52:51;;;;;;;1.90;1.10;;;16.50;99.90;;;;;;4937298;29;20078;-73
2022/07/10 07:55:19;;;;;;;7.80;1.98;;;16.40;99.90;;;;;;4935896;29;20467;-72
2022/07/10 07:57:45;;;;;;;4.85;1.15;;;16.50;99.90;;;;;;4936863;29;20039;-71
2022/07/10 08:00:12;;;;;;;6.28;1.35;;;16.40;99.90;;;;;;4936866;29;20056;-73
2022/07/10 08:02:39;;;;;;;4.30;1.55;;;16.50;99.90;;;;;;4936923;29;20107;-74
2022/07/10 08:05:06;;;;;;;2.63;2.10;;;16.40;99.90;;;;;;4937012;29;20082;-72
2022/07/10 08:07:38;;;;;;;8.35;1.63;;;16.40;99.90;;;;;;4936793;29;20127;-72
2022/07/10 08:10:05;;;;;;;2.97;0.93;;;16.40;99.90;;;;;;4936650;29;20052;-72
2022/07/10 08:12:31;;;;;;;1.70;1.10;;;16.50;99.90;;;;;;4936556;29;20287;-72
2022/07/10 08:14:58;;;;;;;2.95;1.30;;;16.50;99.90;;;;;;4936581;29;20176;-72
2022/07/10 08:17:24;;;;;;;5.18;1.85;;;16.80;99.90;;;;;;4936204;29;20178;-70
2022/07/10 08:19:50;;;;;;;4.60;1.42;;;16.80;99.90;;;;;;4936806;29;20047;-73
2022/07/10 08:22:15;;;;;;;2.95;1.25;;;16.70;99.90;;;;;;4935475;29;20055;-73
2022/07/10 08:24:41;;;;;;;3.10;1.67;;;16.60;99.90;;;;;;4935419;29;20394;-70
2022/07/10 08:27:08;;;;;;;1.52;0.98;;;16.50;99.90;;;;;;4936333;29;20043;-74
2022/07/10 08:29:34;;;;;;;2.55;1.10;;;16.40;99.90;;;;;;4935322;29;20048;-71
2022/07/10 08:31:59;;;;;;;2.15;0.90;;;16.50;99.90;;;;;;4936837;29;20445;-72
2022/07/10 08:34:26;;;;;;;3.40;1.50;;;16.50;99.90;;;;;;4935967;29;20510;-72
2022/07/10 08:36:51;;;;;;;4.40;1.25;;;16.50;99.90;;;;;;4936486;29;20114;-72
2022/07/10 08:39:20;;;;;;;3.97;1.13;;;16.40;99.90;;;;;;4936074;29;20139;-71
2022/07/10 08:41:50;;;;;;;2.25;1.30;;;16.40;99.90;;;;;;4936005;29;20055;-71
2022/07/10 08:44:19;;;;;;;2.10;1.13;;;16.50;99.90;;;;;;4936032;29;20084;-70
2022/07/10 08:46:45;;;;;;;4.65;1.27;;;16.50;99.90;;;;;;4936115;29;20115;-70
2022/07/10 08:49:13;;;;;;;2.90;1.30;;;16.60;99.90;;;;;;4936063;29;20284;-73
2022/07/10 08:52:02;;;;;;;1.65;0.88;;;16.80;99.90;;;;;;4935873;29;20103;-72
2022/07/10 08:54:29;;;;;;;2.50;1.02;;;17.00;99.90;;;;;;4936017;29;20048;-73
2022/07/10 08:57:00;;;;;;;0.90;0.73;;;17.10;99.90;;;;;;4935005;29;20048;-73
2022/07/10 08:59:27;;;;;;;0.73;0.73;;;17.10;99.90;;;;;;4936309;29;20142;-73
2022/07/10 09:01:56;;;;;;;2.47;1.00;;;17.20;99.90;;;;;;4935854;29;20059;-71
2022/07/10 09:04:23;;;;;;;2.33;1.35;;;17.20;99.90;;;;;;4935652;29;20078;-73
2022/07/10 09:06:51;;;;;;;1.92;0.90;;;17.30;99.90;;;;;;4935491;29;20040;-70
2022/07/10 09:09:17;;;;;;;1.05;1.05;;;17.40;99.90;;;;;;4935769;29;20107;-72
2022/07/10 09:11:43;;;;;;;1.83;0.95;;;17.40;99.90;;;;;;4934506;29;20048;-69
2022/07/10 09:14:11;;;;;;;7.63;1.08;;;17.40;99.90;;;;;;4936160;29;20042;-70
2022/07/10 09:16:42;;;;;;;2.15;0.80;;;17.30;99.90;;;;;;4935275;29;20184;-70
2022/07/10 09:19:25;;;;;;;2.10;0.90;;;17.40;99.90;;;;;;4935156;29;20048;-72
2022/07/10 09:22:07;;;;;;;3.17;0.75;;;17.30;99.90;;;;;;4933672;29;20054;-72
2022/07/10 09:24:38;;;;;;;1.23;0.93;;;17.30;99.90;;;;;;4934918;29;20116;-75
2022/07/10 09:27:04;;;;;;;6.28;0.77;;;17.40;99.90;;;;;;4934570;29;20171;-71
2022/07/10 09:29:31;;;;;;;1.60;0.50;;;17.40;99.90;;;;;;4934741;29;20048;-72
2022/07/10 09:32:02;;;;;;;2.03;0.60;;;17.40;99.90;;;;;;4934831;29;20114;-71
2022/07/10 09:34:41;;;;;;;1.58;0.88;;;17.30;99.90;;;;;;4934837;29;20110;-73
2022/07/10 09:37:33;;;;;;;2.22;0.90;;;17.30;99.90;;;;;;4934985;29;20054;-72
2022/07/10 09:40:05;;;;;;;1.55;0.88;;;17.30;99.90;;;;;;4934814;29;20139;-73
2022/07/10 09:42:42;;;;;;;4.25;1.25;;;17.40;99.90;;;;;;4935203;29;20087;-73
2022/07/10 09:45:12;;;;;;;2.80;1.10;;;17.50;99.90;;;;;;4933541;29;20090;-71
2022/07/10 09:47:46;;;;;;;3.42;1.80;;;17.40;99.90;;;;;;4934653;29;20474;-71
2022/07/10 09:50:22;;;;;;;2.63;1.15;;;17.40;99.90;;;;;;4935036;29;20048;-72
2022/07/10 09:52:51;;;;;;;3.95;1.35;;;17.30;99.90;;;;;;4934841;29;20043;-74
2022/07/10 09:55:20;;;;;;;1.65;1.02;;;17.20;99.90;;;;;;4934793;29;20060;-72
2022/07/10 09:57:52;;;;;;;1.17;0.95;;;17.10;99.90;;;;;;4934571;29;20047;-75
2022/07/10 10:00:18;;;;;;;0.73;0.73;;;17.00;99.90;;;;;;4934681;29;20052;-72
2022/07/10 10:02:45;;;;;;;1.27;1.17;;;17.00;99.90;;;;;;4934958;29;20055;-74
2022/07/10 10:05:12;;;;;;;1.38;0.90;;;16.90;99.90;;;;;;4934848;29;20051;-75
2022/07/10 10:07:38;;;;;;;1.90;1.02;;;16.90;99.90;;;;;;4934501;29;20047;-71
2022/07/10 10:10:07;;;;;;;0.85;0.85;;;16.90;99.90;;;;;;4934403;29;20048;-74
2022/07/10 10:12:47;;;;;;;2.63;1.00;;;16.90;99.90;;;;;;4934824;29;20065;-71
2022/07/10 10:15:14;;;;;;;1.98;1.17;;;16.80;99.90;;;;;;4934613;29;20052;-72
2022/07/10 10:17:41;;;;;;;5.43;1.30;;;16.80;99.90;;;;;;4934847;29;20035;-73
2022/07/10 10:22:55;;;;;;;1.48;0.80;;;16.80;99.90;;;;;;4934467;29;20059;-74
2022/07/10 10:25:24;;;;;;;1.27;1.00;;;16.80;99.90;;;;;;4934656;29;20079;-75
2022/07/10 10:27:50;;;;;;;1.17;1.08;;;16.80;99.90;;;;;;4934629;29;20135;-73
2022/07/10 10:30:17;;;;;;;1.67;1.30;;;16.70;99.90;;;;;;4934323;29;20102;-74
2022/07/10 10:32:43;;;;;;;3.38;1.35;;;16.90;99.90;;;;;;4934317;29;20105;-72
2022/07/10 10:35:15;;;;;;;4.50;1.45;;;17.00;99.90;;;;;;4934667;29;20497;-72
2022/07/10 10:37:44;;;;;;;2.42;1.05;;;17.10;99.90;;;;;;4935000;29;20056;-73
2022/07/10 10:40:31;;;;;;;3.38;1.55;;;17.20;99.90;;;;;;4934600;29;20092;-73
2022/07/10 10:42:58;;;;;;;4.07;1.88;;;17.30;99.90;;;;;;4934561;29;20478;-73
2022/07/10 10:45:36;;;;;;;2.03;1.50;;;17.70;99.90;;;;;;4933314;29;20056;-72
2022/07/10 10:48:06;;;;;;;2.72;1.80;;;17.90;99.90;;;;;;4934639;29;20048;-74
2022/07/10 10:50:50;;;;;;;3.40;2.22;;;18.00;99.90;;;;;;4934452;29;20055;-74
2022/07/10 10:53:21;;;;;;;2.88;1.48;;;18.10;99.90;;;;;;4934468;29;20059;-75
2022/07/10 10:56:05;;;;;;;3.47;1.70;;;17.90;99.90;;;;;;4934864;29;20068;-74
2022/07/10 10:58:37;;;;;;;3.67;1.85;;;17.80;99.90;;;;;;4934216;29;20051;-73
2022/07/10 11:01:30;;;;;;;5.90;1.88;;;17.60;99.90;;;;;;4934372;29;20052;-74
2022/07/10 11:04:04;;;;;;;2.60;1.77;;;17.50;99.90;;;;;;4934739;29;20106;-75
2022/07/10 11:06:50;;;;;;;2.85;1.70;;;17.70;99.90;;;;;;4934386;29;20059;-72
2022/07/10 11:09:32;;;;;;;5.05;2.00;;;17.80;99.90;;;;;;4934206;29;20522;-74
2022/07/10 11:12:09;;;;;;;2.90;1.88;;;17.90;99.90;;;;;;4934696;29;20106;-76
2022/07/10 11:14:46;;;;;;;2.70;1.73;;;17.80;99.90;;;;;;4934246;29;20494;-73
2022/07/10 11:17:12;;;;;;;3.50;1.60;;;17.70;99.90;;;;;;4934146;29;20047;-73
2022/07/10 11:19:39;;;;;;;6.50;1.88;;;17.60;99.90;;;;;;4933943;29;20367;-73
2022/07/10 11:22:24;;;;;;;8.93;2.15;;;17.40;99.90;;;;;;4936538;29;20067;-73
2022/07/10 11:25:12;;;;;;;2.70;2.00;;;17.30;99.90;;;;;;4938341;29;20074;-74
2022/07/10 11:28:09;;;;;;;3.22;2.15;;;17.40;99.90;;;;;;4937930;29;20453;-72
2022/07/10 11:30:52;;;;;;;3.47;1.77;;;17.40;99.90;;;;;;4938171;29;20083;-73
2022/07/10 11:33:20;;;;;;;4.40;2.10;;;17.60;99.90;;;;;;4937465;29;20499;-74
2022/07/10 11:35:53;;;;;;;7.25;1.52;;;17.80;99.90;;;;;;4937403;29;20067;-75
2022/07/10 11:38:20;;;;;;;6.75;1.90;;;18.10;99.90;;;;;;4937420;29;20103;-74
2022/07/10 11:40:46;;;;;;;4.78;1.58;;;18.20;99.90;;;;;;4937454;29;20552;-74
2022/07/10 11:43:16;;;;;;;2.70;1.90;;;18.30;99.90;;;;;;4937582;29;20043;-74
2022/07/10 11:45:43;;;;;;;4.20;1.45;;;18.50;99.90;;;;;;4937414;29;20052;-73
2022/07/10 11:48:17;;;;;;;4.07;1.77;;;18.60;99.90;;;;;;4936713;29;20079;-73
2022/07/10 11:50:44;;;;;;;5.95;1.50;;;18.50;99.90;;;;;;4937574;29;20055;-73
2022/07/10 11:53:09;;;;;;;4.25;1.88;;;18.40;99.90;;;;;;4936967;29;20054;-73
2022/07/10 11:55:37;;;;;;;2.58;1.70;;;18.10;99.90;;;;;;4937257;29;20051;-73
2022/07/10 11:58:20;;;;;;;2.55;1.48;;;17.90;99.90;;;;;;4937061;29;20043;-73
2022/07/10 12:01:06;;;;;;;3.45;1.63;;;17.70;99.90;;;;;;4937195;29;20099;-72
2022/07/10 12:03:32;;;;;;;2.75;1.52;;;17.60;99.90;;;;;;4937114;29;20127;-75
2022/07/10 12:06:07;;;;;;;2.60;1.48;;;17.70;99.90;;;;;;4937349;29;20079;-72
2022/07/10 12:08:46;;;;;;;1.77;1.30;;;17.80;99.90;;;;;;4937048;29;20044;-73
2022/07/10 12:11:14;;;;;;;5.10;1.67;;;18.10;99.90;;;;;;4935985;29;20047;-73
2022/07/10 12:13:40;;;;;;;2.92;1.40;;;18.20;99.90;;;;;;4936552;29;20504;-74
2022/07/10 12:16:05;;;;;;;2.25;1.75;;;18.10;99.90;;;;;;4936994;29;20054;-73
2022/07/10 12:18:33;;;;;;;2.70;1.40;;;18.10;99.90;;;;;;4936032;29;20357;-73
2022/07/10 12:20:59;;;;;;;3.17;1.83;;;18.10;99.90;;;;;;4937086;29;20063;-74
2022/07/10 12:23:25;;;;;;;2.25;1.60;;;18.10;99.90;;;;;;4936737;29;20062;-74
2022/07/10 12:25:51;;;;;;;3.85;1.77;;;18.00;99.90;;;;;;4936757;29;20047;-73
2022/07/10 12:28:17;;;;;;;3.92;1.38;;;17.90;99.90;;;;;;4936660;29;20139;-73
2022/07/10 12:30:45;;;;;;;2.92;1.65;;;17.90;99.90;;;;;;4936225;29;20051;-73
2022/07/10 12:33:16;;;;;;;2.63;1.58;;;18.00;99.90;;;;;;4936511;29;20131;-73
2022/07/10 12:35:57;;;;;;;5.72;1.77;;;18.00;99.90;;;;;;4936232;29;20394;-73
2022/07/10 12:38:24;;;;;;;2.05;1.40;;;18.10;99.90;;;;;;4936480;29;20043;-73
2022/07/10 12:40:51;;;;;;;3.72;1.70;;;18.20;99.90;;;;;;4936518;29;20051;-73
2022/07/10 12:43:29;;;;;;;3.15;1.58;;;18.30;99.90;;;;;;4936708;29;20054;-74
2022/07/10 12:46:11;;;;;;;4.93;1.48;;;18.40;99.90;;;;;;4935187;29;20083;-74
2022/07/10 12:48:40;;;;;;;3.10;1.77;;;18.70;99.90;;;;;;4935223;29;20083;-73
2022/07/10 12:51:26;;;;;;;3.00;1.75;;;18.80;99.90;;;;;;4935939;29;20552;-73
2022/07/10 12:53:53;;;;;;;4.65;2.00;;;18.70;99.90;;;;;;4936615;29;20052;-74
2022/07/10 12:56:36;;;;;;;3.95;2.58;;;18.60;99.90;;;;;;4935907;29;20062;-73
2022/07/10 12:59:13;;;;;;;4.50;1.83;;;18.50;99.90;;;;;;4935998;29;20094;-74